Time;durP1;ratioP1;P1;durP2;ratioP2;P2;SDS_P1;SDS_P2;PMS_P1;PMS_P2;Temp;Humidity;BMP_temperature;BMP_pressure;BME280_temperature;BME280_humidity;BME280_pressure;Samples;Min_cycle;Max_cycle;Signal;HPM_P1;HPM_P2
2021/08/02 00:04:17;;;;;;;2.77;2.07;;;18.90;44.00;;;;;;10461638;28;20236;-69
2021/08/02 00:09:26;;;;;;;3.13;1.80;;;18.90;43.40;;;;;;10458389;28;20237;-68
2021/08/02 00:14:30;;;;;;;2.37;2.00;;;18.80;43.90;;;;;;10458840;28;20228;-69
2021/08/02 00:19:34;;;;;;;2.10;1.70;;;18.80;43.50;;;;;;10465574;28;20232;-68
2021/08/02 00:24:38;;;;;;;2.60;1.97;;;18.80;43.70;;;;;;10464228;28;20225;-69
2021/08/02 00:29:42;;;;;;;2.40;2.20;;;18.70;43.80;;;;;;10464423;28;20238;-69
2021/08/02 00:34:45;;;;;;;2.17;2.07;;;18.60;43.80;;;;;;10458558;28;20228;-68
2021/08/02 00:39:57;;;;;;;2.27;2.17;;;18.50;43.80;;;;;;10467473;28;20595;-68
2021/08/02 00:45:08;;;;;;;2.50;2.30;;;18.50;44.60;;;;;;10463046;28;20220;-69
2021/08/02 00:50:14;;;;;;;2.47;2.27;;;18.50;45.00;;;;;;10459583;28;20225;-68
2021/08/02 00:55:20;;;;;;;2.20;2.00;;;18.40;44.60;;;;;;10464353;28;20243;-69
2021/08/02 01:00:23;;;;;;;2.27;2.10;;;18.40;44.80;;;;;;10462448;28;20244;-68
2021/08/02 01:05:26;;;;;;;2.83;2.30;;;18.40;44.20;;;;;;10460801;28;20225;-68
2021/08/02 01:10:32;;;;;;;2.50;2.30;;;18.40;44.40;;;;;;10460043;28;20224;-68
2021/08/02 01:15:36;;;;;;;2.47;2.33;;;18.30;45.10;;;;;;10462916;28;20221;-68
2021/08/02 01:20:46;;;;;;;4.20;2.50;;;18.30;44.60;;;;;;10462153;28;20888;-68
2021/08/02 01:26:19;;;;;;;2.47;2.27;;;18.30;45.20;;;;;;10461417;28;20224;-68
2021/08/02 01:31:24;;;;;;;2.67;2.33;;;18.30;45.20;;;;;;10464717;28;20239;-68
2021/08/02 01:36:28;;;;;;;2.53;2.37;;;18.20;45.00;;;;;;10460293;28;20251;-68
2021/08/02 01:41:31;;;;;;;2.57;2.40;;;18.10;44.50;;;;;;10463371;28;20795;-68
2021/08/02 01:46:44;;;;;;;2.60;2.40;;;18.10;44.70;;;;;;10461942;28;22184;-69
2021/08/02 01:51:50;;;;;;;3.03;2.60;;;18.00;45.60;;;;;;10460116;28;20225;-68
2021/08/02 01:56:58;;;;;;;3.30;2.40;;;18.00;45.00;;;;;;10463071;28;20227;-68
2021/08/02 02:02:07;;;;;;;3.40;2.67;;;18.00;45.20;;;;;;10459313;28;20279;-68
2021/08/02 02:07:13;;;;;;;4.50;2.60;;;18.00;45.50;;;;;;10455689;28;20225;-68
2021/08/02 02:12:18;;;;;;;4.00;2.57;;;18.00;45.20;;;;;;10459930;28;20254;-68
2021/08/02 02:17:26;;;;;;;2.90;2.70;;;18.10;44.90;;;;;;10459563;28;20236;-68
2021/08/02 02:22:30;;;;;;;3.10;2.70;;;18.10;45.40;;;;;;10456304;28;20229;-68
2021/08/02 02:27:34;;;;;;;2.83;2.57;;;18.10;44.60;;;;;;10460237;28;20889;-68
2021/08/02 02:32:40;;;;;;;2.90;2.70;;;18.00;44.70;;;;;;10457212;28;20247;-69
2021/08/02 02:37:45;;;;;;;3.10;2.90;;;18.00;45.30;;;;;;10458674;28;20302;-68
2021/08/02 02:42:49;;;;;;;2.80;2.60;;;18.00;44.80;;;;;;10469603;28;20228;-68
2021/08/02 02:47:54;;;;;;;3.73;2.90;;;17.90;44.80;;;;;;10456056;28;20233;-68
2021/08/02 02:52:59;;;;;;;4.53;3.07;;;17.90;45.20;;;;;;10455548;28;20244;-68
2021/08/02 02:58:03;;;;;;;4.00;2.80;;;17.80;45.00;;;;;;10454009;28;21013;-70
2021/08/02 03:03:10;;;;;;;4.50;3.20;;;17.80;45.00;;;;;;10456513;28;20240;-69
2021/08/02 03:08:15;;;;;;;4.20;3.13;;;17.80;45.60;;;;;;10460516;28;20256;-68
2021/08/02 03:13:18;;;;;;;2.70;2.50;;;17.80;45.20;;;;;;10460210;28;20232;-69
2021/08/02 03:18:23;;;;;;;5.40;2.70;;;17.80;44.90;;;;;;10454739;28;20622;-69
2021/08/02 03:23:32;;;;;;;3.17;2.30;;;17.80;45.20;;;;;;10453239;28;20229;-69
2021/08/02 03:28:43;;;;;;;3.57;3.17;;;17.90;45.30;;;;;;10458106;28;20224;-69
2021/08/02 03:33:49;;;;;;;5.50;2.90;;;18.00;45.30;;;;;;10458292;28;20235;-69
2021/08/02 03:38:54;;;;;;;2.93;2.63;;;18.00;45.00;;;;;;10457481;28;20763;-69
2021/08/02 03:44:00;;;;;;;3.80;2.63;;;18.00;44.70;;;;;;10458550;28;20233;-72
2021/08/02 03:49:05;;;;;;;3.57;3.00;;;18.00;44.80;;;;;;10451253;28;20696;-72
2021/08/02 03:54:08;;;;;;;3.90;3.60;;;18.00;44.60;;;;;;10455504;28;20233;-72
2021/08/02 03:59:11;;;;;;;4.60;3.83;;;18.00;44.40;;;;;;10457261;28;20225;-68
2021/08/02 04:04:15;;;;;;;3.30;3.00;;;17.90;44.30;;;;;;10459146;28;20236;-69
2021/08/02 04:09:19;;;;;;;3.77;3.47;;;17.80;44.70;;;;;;10450851;28;20247;-73
2021/08/02 04:14:22;;;;;;;4.77;3.20;;;17.70;44.50;;;;;;10460997;28;20232;-73
2021/08/02 04:19:26;;;;;;;5.03;3.53;;;17.70;44.70;;;;;;10462696;28;20228;-69
2021/08/02 04:24:30;;;;;;;5.17;4.10;;;17.70;45.00;;;;;;10464337;28;20240;-69
2021/08/02 04:29:33;;;;;;;4.83;3.77;;;17.70;44.90;;;;;;10456933;28;20650;-69
2021/08/02 04:34:38;;;;;;;4.20;3.80;;;17.60;44.90;;;;;;10457034;28;20716;-69
2021/08/02 04:39:41;;;;;;;4.67;3.33;;;17.70;45.60;;;;;;10462104;28;20224;-75
2021/08/02 04:44:44;;;;;;;4.97;3.50;;;17.70;45.40;;;;;;10462567;28;20229;-74
2021/08/02 04:49:49;;;;;;;3.40;3.10;;;17.70;45.40;;;;;;10462244;28;21033;-74
2021/08/02 04:54:52;;;;;;;3.23;2.83;;;17.70;45.80;;;;;;10460057;28;20240;-74
2021/08/02 04:59:55;;;;;;;3.93;3.47;;;17.70;45.60;;;;;;10460101;28;20220;-73
2021/08/02 05:05:00;;;;;;;6.03;3.57;;;17.70;45.90;;;;;;10462592;28;20224;-73
2021/08/02 05:10:04;;;;;;;4.00;3.60;;;17.80;46.80;;;;;;10462178;28;20228;-72
2021/08/02 05:15:10;;;;;;;4.20;3.80;;;17.90;46.80;;;;;;10459882;28;20240;-72
2021/08/02 05:20:18;;;;;;;4.90;3.77;;;18.00;47.00;;;;;;10459757;28;20237;-71
2021/08/02 05:25:21;;;;;;;3.47;3.10;;;18.10;47.10;;;;;;10456436;28;20256;-71
2021/08/02 05:30:24;;;;;;;3.93;3.53;;;18.20;46.80;;;;;;10456016;28;20229;-71
2021/08/02 05:35:29;;;;;;;4.53;3.37;;;18.30;46.60;;;;;;10463473;28;20599;-71
2021/08/02 05:40:32;;;;;;;3.40;3.10;;;18.30;47.20;;;;;;10456231;28;20225;-71
2021/08/02 05:45:36;;;;;;;3.03;2.73;;;18.30;46.50;;;;;;10451086;28;20902;-72
2021/08/02 05:50:40;;;;;;;3.20;2.97;;;18.30;46.50;;;;;;10458501;28;20550;-73
2021/08/02 05:55:44;;;;;;;3.70;3.10;;;18.40;46.90;;;;;;10463812;28;20235;-71
2021/08/02 06:00:49;;;;;;;3.57;3.27;;;18.40;46.30;;;;;;10457922;28;20232;-70
2021/08/02 06:05:54;;;;;;;3.67;3.23;;;18.40;46.50;;;;;;10451631;28;20224;-70
2021/08/02 06:10:57;;;;;;;4.03;3.03;;;18.40;46.90;;;;;;10456815;28;20229;-73
2021/08/02 06:16:03;;;;;;;3.27;2.97;;;18.50;46.70;;;;;;10457884;28;20235;-72
2021/08/02 06:21:07;;;;;;;3.30;3.00;;;18.50;46.50;;;;;;10462037;28;20224;-73
2021/08/02 06:26:11;;;;;;;3.07;2.83;;;18.60;46.60;;;;;;10449725;28;20225;-68
2021/08/02 06:31:14;;;;;;;3.63;3.33;;;18.70;47.00;;;;;;10459757;28;20235;-68
2021/08/02 06:36:20;;;;;;;3.00;2.80;;;18.70;47.00;;;;;;10448758;28;20316;-68
2021/08/02 06:41:23;;;;;;;3.13;2.83;;;18.80;46.80;;;;;;10452240;28;20234;-72
2021/08/02 06:46:26;;;;;;;3.33;2.97;;;18.80;46.50;;;;;;10441659;28;20237;-68
2021/08/02 06:51:31;;;;;;;3.47;3.17;;;18.90;46.50;;;;;;10450504;28;20251;-69
2021/08/02 06:56:35;;;;;;;4.13;3.73;;;19.00;47.00;;;;;;10452842;28;20247;-68
2021/08/02 07:01:38;;;;;;;3.83;3.20;;;19.00;46.50;;;;;;10454631;28;20230;-67
2021/08/02 07:06:44;;;;;;;5.00;3.53;;;19.10;46.70;;;;;;10453773;28;20225;-68
2021/08/02 07:11:47;;;;;;;4.47;4.10;;;19.10;46.50;;;;;;10456787;28;20231;-68
2021/08/02 07:16:51;;;;;;;4.10;3.70;;;19.20;46.60;;;;;;10452634;28;20232;-67
2021/08/02 07:21:55;;;;;;;4.50;3.80;;;19.30;47.20;;;;;;10453346;28;20317;-68
2021/08/02 07:26:58;;;;;;;5.03;4.23;;;19.30;47.30;;;;;;10453305;28;20229;-68
2021/08/02 07:32:01;;;;;;;4.33;3.67;;;19.40;46.70;;;;;;10455348;28;20228;-71
2021/08/02 07:37:06;;;;;;;4.40;4.00;;;19.40;46.90;;;;;;10453343;28;20224;-73
2021/08/02 07:42:10;;;;;;;4.20;3.80;;;19.50;46.80;;;;;;10455245;28;20238;-74
2021/08/02 07:47:13;;;;;;;4.13;3.73;;;19.50;46.90;;;;;;10454540;28;20224;-73
2021/08/02 07:52:17;;;;;;;3.57;3.33;;;19.70;47.20;;;;;;10469164;28;20724;-73
2021/08/02 07:57:21;;;;;;;3.90;3.57;;;19.80;47.20;;;;;;10471951;28;20225;-74
2021/08/02 08:02:24;;;;;;;3.20;3.00;;;19.90;47.30;;;;;;10469125;28;20228;-68
2021/08/02 08:07:29;;;;;;;4.33;3.10;;;19.90;46.30;;;;;;10462767;28;20232;-68
2021/08/02 08:12:32;;;;;;;3.47;3.17;;;20.00;46.70;;;;;;10461577;28;20230;-68
2021/08/02 08:17:35;;;;;;;3.57;3.23;;;20.10;46.20;;;;;;10462003;28;20311;-68
2021/08/02 08:22:40;;;;;;;4.47;3.47;;;20.20;45.80;;;;;;10461373;28;20637;-71
2021/08/02 08:27:45;;;;;;;4.83;3.43;;;20.20;45.60;;;;;;10463196;28;20220;-71
2021/08/02 08:32:48;;;;;;;3.43;3.00;;;20.20;45.60;;;;;;10463727;28;20224;-74
2021/08/02 08:37:53;;;;;;;3.07;2.87;;;20.20;45.90;;;;;;10467442;28;20225;-74
2021/08/02 08:42:57;;;;;;;2.90;2.70;;;20.20;46.10;;;;;;10454238;28;20236;-74
2021/08/02 08:48:00;;;;;;;3.20;2.97;;;20.30;45.80;;;;;;10463580;28;20216;-75
2021/08/02 08:53:05;;;;;;;3.20;2.97;;;20.30;46.20;;;;;;10460556;28;20232;-72
2021/08/02 08:58:09;;;;;;;3.33;3.03;;;20.40;45.40;;;;;;10456017;28;20232;-69
2021/08/02 09:03:14;;;;;;;4.60;3.10;;;20.50;45.80;;;;;;10458552;28;20721;-71
2021/08/02 09:08:23;;;;;;;3.27;2.97;;;20.70;45.30;;;;;;10456679;28;20227;-71
2021/08/02 09:13:31;;;;;;;2.90;2.70;;;20.80;45.10;;;;;;10450668;28;20630;-71
2021/08/02 09:18:34;;;;;;;4.70;2.60;;;20.90;44.20;;;;;;10452972;28;20279;-72
2021/08/02 09:23:48;;;;;;;3.10;2.70;;;21.00;44.40;;;;;;10459012;28;20256;-73
2021/08/02 09:28:53;;;;;;;2.80;2.60;;;21.10;44.20;;;;;;10460540;28;20232;-73
2021/08/02 09:34:02;;;;;;;3.30;3.00;;;21.10;44.50;;;;;;10452214;28;20224;-73
2021/08/02 09:39:07;;;;;;;2.53;2.33;;;21.10;44.40;;;;;;10456775;28;20228;-72
2021/08/02 09:44:20;;;;;;;3.20;2.90;;;21.10;43.90;;;;;;10451556;28;20236;-72
2021/08/02 09:49:23;;;;;;;2.87;2.47;;;21.10;43.80;;;;;;10455751;28;20232;-71
2021/08/02 09:54:29;;;;;;;2.83;2.50;;;21.10;44.10;;;;;;10461739;28;20236;-73
2021/08/02 09:59:34;;;;;;;2.57;2.37;;;21.20;43.70;;;;;;10458353;28;20763;-73
2021/08/02 10:04:37;;;;;;;2.73;2.53;;;21.20;43.90;;;;;;10458278;28;20252;-72
2021/08/02 10:09:42;;;;;;;2.50;2.30;;;21.30;44.10;;;;;;10459197;28;20238;-75
2021/08/02 10:14:46;;;;;;;2.30;2.10;;;21.30;43.20;;;;;;10469051;28;20348;-75
2021/08/02 10:19:54;;;;;;;2.80;2.13;;;21.40;42.90;;;;;;10473010;28;20224;-75
2021/08/02 10:25:00;;;;;;;1.97;1.67;;;21.50;41.90;;;;;;10458879;28;20243;-75
2021/08/02 10:30:03;;;;;;;2.17;2.00;;;21.60;42.00;;;;;;10457411;28;20220;-78
2021/08/02 10:35:07;;;;;;;4.37;2.17;;;21.70;42.80;;;;;;10461766;28;20749;-73
2021/08/02 10:40:13;;;;;;;2.63;1.97;;;21.80;42.80;;;;;;10466696;28;20221;-74
2021/08/02 10:45:28;;;;;;;2.27;2.07;;;22.00;42.60;;;;;;10461896;28;20236;-74
2021/08/02 10:50:37;;;;;;;2.40;2.20;;;22.20;42.40;;;;;;10466288;28;20235;-72
2021/08/02 10:55:47;;;;;;;2.00;1.90;;;22.20;42.10;;;;;;10460721;28;20232;-73
2021/08/02 11:00:55;;;;;;;2.03;1.90;;;22.40;40.10;;;;;;10464390;28;20234;-74
2021/08/02 11:05:59;;;;;;;3.27;2.00;;;22.50;40.30;;;;;;10454906;28;20258;-73
2021/08/02 11:11:08;;;;;;;1.93;1.73;;;22.70;41.60;;;;;;10454769;28;20228;-73
2021/08/02 11:16:11;;;;;;;2.13;1.93;;;22.80;40.90;;;;;;10456253;28;20228;-73
2021/08/02 11:21:26;;;;;;;1.93;1.67;;;23.10;41.30;;;;;;10452671;28;20221;-73
2021/08/02 11:26:31;;;;;;;1.90;1.80;;;23.20;39.30;;;;;;10447134;28;20217;-73
2021/08/02 11:31:34;;;;;;;1.90;1.80;;;23.40;40.40;;;;;;10454567;28;20687;-73
2021/08/02 11:36:38;;;;;;;1.73;1.63;;;23.60;40.70;;;;;;10455904;28;20240;-73
2021/08/02 11:41:46;;;;;;;2.10;1.90;;;23.80;39.80;;;;;;10453548;28;20994;-73
2021/08/02 11:46:49;;;;;;;2.10;1.90;;;23.80;39.40;;;;;;10453162;28;20224;-73
2021/08/02 11:51:54;;;;;;;2.77;1.80;;;23.90;39.90;;;;;;10450803;28;20305;-72
2021/08/02 11:56:59;;;;;;;2.63;1.70;;;23.90;40.00;;;;;;10448457;28;20243;-72
2021/08/02 12:02:02;;;;;;;1.80;1.70;;;24.00;38.10;;;;;;10447501;28;20227;-72
2021/08/02 12:07:07;;;;;;;2.37;1.80;;;24.00;38.60;;;;;;10456103;28;20236;-72
2021/08/02 12:12:22;;;;;;;2.13;1.93;;;24.00;38.90;;;;;;10451867;28;20791;-72
2021/08/02 12:17:25;;;;;;;2.10;1.63;;;24.00;37.80;;;;;;10456589;28;20303;-72
2021/08/02 12:22:37;;;;;;;1.93;1.50;;;24.10;40.10;;;;;;10453808;28;20225;-71
2021/08/02 12:27:43;;;;;;;1.67;1.53;;;24.20;37.90;;;;;;10448581;28;20213;-72
2021/08/02 12:32:47;;;;;;;1.63;1.57;;;24.40;37.70;;;;;;10458805;28;20232;-74
2021/08/02 12:37:50;;;;;;;1.57;1.47;;;24.60;37.60;;;;;;10466614;28;20244;-74
2021/08/02 12:42:54;;;;;;;2.60;1.67;;;24.60;36.40;;;;;;10466891;28;20582;-75
2021/08/02 12:47:57;;;;;;;1.77;1.67;;;24.60;35.40;;;;;;10469724;28;20223;-74
2021/08/02 12:53:02;;;;;;;2.00;1.80;;;24.50;35.70;;;;;;10463397;28;20634;-74
2021/08/02 12:58:07;;;;;;;1.97;1.80;;;24.50;36.00;;;;;;10463998;28;20216;-74
2021/08/02 13:03:10;;;;;;;1.80;1.63;;;24.60;35.60;;;;;;10461284;28;20244;-74
2021/08/02 13:08:13;;;;;;;1.97;1.70;;;24.70;35.30;;;;;;10464356;28;20216;-74
2021/08/02 13:13:18;;;;;;;1.87;1.47;;;24.80;35.80;;;;;;10465908;28;20229;-74
2021/08/02 13:18:24;;;;;;;1.63;1.53;;;24.90;35.20;;;;;;10456999;28;20224;-74
2021/08/02 13:23:35;;;;;;;2.03;1.63;;;25.10;35.20;;;;;;10462469;28;20231;-74
2021/08/02 13:28:39;;;;;;;1.90;1.60;;;25.20;35.10;;;;;;10468902;28;20227;-74
2021/08/02 13:33:43;;;;;;;1.60;1.50;;;25.40;33.60;;;;;;10467148;28;20235;-74
2021/08/02 13:38:46;;;;;;;1.50;1.40;;;25.40;34.30;;;;;;10466710;28;20221;-74
2021/08/02 13:43:52;;;;;;;1.83;1.73;;;25.50;34.00;;;;;;10467990;28;20249;-74
2021/08/02 13:48:55;;;;;;;1.97;1.87;;;25.60;32.40;;;;;;10461635;28;20228;-75
2021/08/02 13:53:59;;;;;;;1.97;1.87;;;25.60;33.80;;;;;;10464575;28;20228;-74
2021/08/02 13:59:04;;;;;;;1.80;1.70;;;25.70;33.60;;;;;;10458356;28;20229;-73
2021/08/02 14:04:07;;;;;;;1.90;1.50;;;25.70;32.70;;;;;;10457769;28;20264;-73
2021/08/02 14:09:10;;;;;;;2.07;1.97;;;25.70;32.90;;;;;;10460447;28;20708;-74
2021/08/02 14:14:16;;;;;;;1.90;1.80;;;25.80;32.40;;;;;;10461892;28;20225;-74
2021/08/02 14:19:24;;;;;;;1.70;1.60;;;25.80;31.10;;;;;;10456167;28;20244;-74
2021/08/02 14:24:29;;;;;;;1.97;1.87;;;25.90;31.50;;;;;;10459852;28;20233;-75
2021/08/02 14:29:35;;;;;;;2.30;1.63;;;25.90;32.60;;;;;;10459752;28;20225;-75
2021/08/02 14:34:38;;;;;;;2.17;1.63;;;26.00;31.60;;;;;;10450052;28;20223;-75
2021/08/02 14:39:47;;;;;;;2.10;2.00;;;26.00;31.90;;;;;;10458945;28;20234;-76
2021/08/02 14:44:58;;;;;;;1.90;1.80;;;26.00;30.20;;;;;;10458048;28;20697;-75
2021/08/02 14:50:08;;;;;;;3.30;2.13;;;25.90;30.10;;;;;;10465131;28;20221;-72
2021/08/02 14:55:13;;;;;;;2.10;1.83;;;25.80;30.20;;;;;;10455387;28;20232;-75
2021/08/02 15:00:18;;;;;;;2.00;1.80;;;25.90;31.30;;;;;;10460547;28;20224;-76
2021/08/02 15:05:21;;;;;;;1.70;1.60;;;25.90;30.00;;;;;;10460455;28;20237;-76
2021/08/02 15:10:25;;;;;;;1.60;1.50;;;25.90;30.90;;;;;;10458495;28;20612;-75
2021/08/02 15:15:31;;;;;;;1.43;1.33;;;25.80;29.70;;;;;;10463700;28;20232;-75
2021/08/02 15:20:35;;;;;;;1.70;1.60;;;25.60;29.00;;;;;;10464703;28;20234;-76
2021/08/02 15:25:42;;;;;;;2.00;1.80;;;25.30;29.90;;;;;;10455622;28;20231;-76
2021/08/02 15:30:47;;;;;;;2.57;1.90;;;25.00;31.30;;;;;;10463191;28;20226;-76
2021/08/02 15:35:52;;;;;;;1.60;1.50;;;24.80;33.50;;;;;;10462878;28;20239;-76
2021/08/02 15:40:56;;;;;;;1.87;1.73;;;24.60;33.90;;;;;;10456647;28;20222;-74
2021/08/02 15:46:01;;;;;;;2.60;1.90;;;24.60;34.40;;;;;;10455599;28;20231;-74
2021/08/02 15:51:06;;;;;;;1.63;1.53;;;24.60;34.50;;;;;;10452786;28;20224;-72
2021/08/02 15:56:10;;;;;;;1.50;1.40;;;24.50;34.20;;;;;;10461283;28;20260;-73
2021/08/02 16:01:21;;;;;;;1.57;1.47;;;24.30;33.40;;;;;;10455544;28;20220;-73
2021/08/02 16:06:26;;;;;;;1.33;1.33;;;24.20;33.10;;;;;;10448746;28;20233;-73
2021/08/02 16:11:43;;;;;;;2.47;1.50;;;24.00;33.50;;;;;;10461142;28;20217;-73
2021/08/02 16:16:48;;;;;;;1.63;1.53;;;23.80;34.40;;;;;;10459238;28;20772;-73
2021/08/02 16:21:51;;;;;;;2.10;1.30;;;23.80;34.60;;;;;;10461855;28;20225;-73
2021/08/02 16:26:54;;;;;;;1.40;1.30;;;23.80;34.50;;;;;;10457338;28;20243;-73
2021/08/02 16:31:59;;;;;;;1.40;1.30;;;23.90;34.70;;;;;;10456062;28;20237;-73
2021/08/02 16:37:02;;;;;;;2.07;1.60;;;24.00;34.80;;;;;;10462157;28;20229;-72
2021/08/02 16:42:07;;;;;;;1.63;1.30;;;24.10;34.70;;;;;;10465413;28;20236;-73
2021/08/02 16:47:11;;;;;;;1.60;1.50;;;24.20;34.50;;;;;;10459421;28;20220;-73
2021/08/02 16:52:15;;;;;;;1.40;1.30;;;24.30;34.30;;;;;;10458221;28;20666;-73
2021/08/02 16:57:18;;;;;;;1.50;1.40;;;24.30;34.50;;;;;;10454653;28;20709;-73
2021/08/02 17:02:27;;;;;;;2.10;1.60;;;24.40;34.30;;;;;;10456452;28;20247;-73
2021/08/02 17:07:30;;;;;;;1.30;1.30;;;24.50;34.00;;;;;;10461404;28;20302;-73
2021/08/02 17:12:34;;;;;;;1.50;1.40;;;24.60;33.80;;;;;;10455648;28;20697;-73
2021/08/02 17:17:39;;;;;;;1.67;1.57;;;24.70;34.10;;;;;;10454573;28;20247;-73
2021/08/02 17:22:43;;;;;;;1.60;1.50;;;24.80;34.10;;;;;;10458410;28;20735;-74
2021/08/02 17:27:47;;;;;;;1.60;1.50;;;24.80;33.70;;;;;;10457017;28;20227;-74
2021/08/02 17:32:51;;;;;;;2.60;1.50;;;24.80;33.60;;;;;;10454381;28;20232;-74
2021/08/02 17:37:55;;;;;;;1.70;1.60;;;24.70;32.90;;;;;;10460567;28;20687;-74
2021/08/02 17:42:58;;;;;;;2.10;1.70;;;24.50;33.50;;;;;;10455172;28;20229;-73
2021/08/02 17:48:03;;;;;;;1.50;1.40;;;24.40;33.80;;;;;;10456738;28;20232;-73
2021/08/02 17:53:06;;;;;;;2.97;1.90;;;24.30;34.20;;;;;;10462854;28;21083;-74
2021/08/02 17:58:10;;;;;;;1.70;1.60;;;24.20;34.20;;;;;;10454310;28;20228;-74
2021/08/02 18:03:14;;;;;;;2.03;1.57;;;24.20;34.40;;;;;;10455391;28;20233;-74
2021/08/02 18:08:21;;;;;;;2.23;1.60;;;24.30;34.60;;;;;;10452070;28;20264;-74
2021/08/02 18:13:24;;;;;;;1.63;1.53;;;24.10;34.20;;;;;;10453742;28;20239;-74
2021/08/02 18:18:29;;;;;;;1.57;1.50;;;24.10;34.50;;;;;;10453251;28;20732;-74
2021/08/02 18:23:32;;;;;;;4.17;2.10;;;23.90;34.70;;;;;;10453514;28;20247;-74
2021/08/02 18:28:35;;;;;;;2.40;1.70;;;23.80;34.60;;;;;;10455649;28;20311;-71
2021/08/02 18:33:40;;;;;;;1.80;1.50;;;23.70;34.90;;;;;;10445991;28;20223;-72
2021/08/02 18:38:43;;;;;;;1.70;1.60;;;23.60;35.10;;;;;;10447555;28;20220;-72
2021/08/02 18:43:46;;;;;;;2.47;1.60;;;23.60;35.10;;;;;;10451722;28;20615;-72
2021/08/02 18:48:51;;;;;;;1.83;1.73;;;23.50;35.20;;;;;;10454572;28;20880;-72
2021/08/02 18:53:54;;;;;;;1.60;1.50;;;23.40;35.10;;;;;;10453414;28;20235;-72
2021/08/02 18:58:57;;;;;;;1.50;1.40;;;23.20;35.10;;;;;;10444131;28;20233;-72
2021/08/02 19:04:02;;;;;;;1.90;1.70;;;23.10;35.40;;;;;;10455323;28;20229;-72
2021/08/02 19:09:05;;;;;;;1.80;1.70;;;23.10;36.00;;;;;;10452927;28;20226;-72
2021/08/02 19:14:09;;;;;;;1.73;1.60;;;23.00;36.00;;;;;;10446344;28;20263;-72
2021/08/02 19:19:17;;;;;;;1.80;1.70;;;23.00;36.70;;;;;;10447903;28;20221;-72
2021/08/02 19:24:24;;;;;;;1.47;1.37;;;22.90;36.00;;;;;;10453572;28;20736;-71
2021/08/02 19:29:27;;;;;;;3.20;1.90;;;22.90;36.20;;;;;;10450767;28;20603;-71
2021/08/02 19:34:32;;;;;;;3.00;1.63;;;22.80;36.00;;;;;;10449751;28;20732;-71
2021/08/02 19:39:36;;;;;;;2.37;2.17;;;22.70;36.30;;;;;;10449121;28;20221;-72
2021/08/02 19:44:50;;;;;;;1.90;1.80;;;22.50;36.10;;;;;;10455203;28;20596;-71
2021/08/02 19:50:02;;;;;;;3.03;2.07;;;22.30;36.60;;;;;;10455907;28;20576;-71
2021/08/02 19:55:08;;;;;;;2.53;1.90;;;22.10;36.70;;;;;;10454499;28;20212;-71
2021/08/02 20:00:13;;;;;;;2.00;1.80;;;22.00;36.50;;;;;;10453296;28;20225;-71
2021/08/02 20:05:20;;;;;;;2.30;2.10;;;21.80;36.60;;;;;;10455218;28;20225;-71
2021/08/02 20:10:28;;;;;;;2.40;1.70;;;21.80;36.80;;;;;;10455591;28;20251;-71
2021/08/02 20:15:32;;;;;;;3.47;2.67;;;21.80;36.80;;;;;;10459078;28;20235;-71
2021/08/02 20:20:37;;;;;;;2.27;2.07;;;21.70;36.50;;;;;;10452500;28;20229;-71
2021/08/02 20:25:42;;;;;;;1.83;1.73;;;21.60;36.60;;;;;;10453223;28;20242;-71
2021/08/02 20:30:48;;;;;;;1.77;1.67;;;21.50;36.90;;;;;;10455900;28;20229;-71
2021/08/02 20:35:53;;;;;;;3.07;1.70;;;21.40;36.70;;;;;;10459174;28;20648;-71
2021/08/02 20:41:01;;;;;;;1.97;1.70;;;21.40;37.00;;;;;;10452402;28;20221;-71
2021/08/02 20:46:04;;;;;;;1.60;1.50;;;21.30;36.60;;;;;;10455079;28;20228;-71
2021/08/02 20:51:09;;;;;;;3.43;1.93;;;21.20;36.50;;;;;;10454322;28;20239;-71
2021/08/02 20:56:14;;;;;;;1.80;1.70;;;21.00;37.00;;;;;;10455401;28;20779;-71
2021/08/02 21:01:25;;;;;;;2.10;1.67;;;20.90;37.30;;;;;;10453205;28;20768;-71
2021/08/02 21:06:34;;;;;;;1.80;1.70;;;20.80;37.30;;;;;;10450862;28;20236;-71
2021/08/02 21:11:38;;;;;;;1.93;1.77;;;20.70;37.10;;;;;;10461701;28;20221;-71
2021/08/02 21:16:43;;;;;;;1.97;1.80;;;20.70;37.10;;;;;;10455629;28;20232;-71
2021/08/02 21:21:49;;;;;;;2.10;2.00;;;20.50;36.90;;;;;;10453829;28;20234;-71
2021/08/02 21:26:58;;;;;;;2.10;2.00;;;20.30;37.40;;;;;;10459581;28;20229;-71
2021/08/02 21:32:01;;;;;;;2.57;2.37;;;20.20;38.00;;;;;;10451362;28;20709;-71
2021/08/02 21:37:08;;;;;;;2.00;1.90;;;20.10;37.40;;;;;;10449894;28;20232;-71
2021/08/02 21:42:11;;;;;;;2.17;1.80;;;19.90;38.00;;;;;;10455887;28;20231;-71
2021/08/02 21:47:15;;;;;;;2.80;2.10;;;19.90;37.80;;;;;;10451366;28;20227;-73
2021/08/02 21:52:19;;;;;;;2.17;2.03;;;19.80;38.00;;;;;;10451252;28;20233;-72
2021/08/02 21:57:23;;;;;;;2.17;1.97;;;19.80;38.30;;;;;;10451381;28;20239;-73
2021/08/02 22:02:26;;;;;;;2.30;2.10;;;19.80;38.10;;;;;;10452538;28;20705;-73
2021/08/02 22:07:31;;;;;;;1.90;1.80;;;19.70;38.10;;;;;;10451397;28;20231;-73
2021/08/02 22:12:34;;;;;;;2.10;1.90;;;19.70;38.70;;;;;;10456428;28;20247;-73
2021/08/02 22:17:38;;;;;;;1.67;1.57;;;19.60;38.40;;;;;;10452624;28;20298;-73
2021/08/02 22:22:44;;;;;;;1.93;1.80;;;19.60;38.60;;;;;;10455188;28;20239;-73
2021/08/02 22:27:47;;;;;;;2.10;1.90;;;19.60;39.20;;;;;;10457024;28;20216;-73
2021/08/02 22:32:51;;;;;;;2.73;1.70;;;19.60;38.70;;;;;;10453516;28;20231;-73
2021/08/02 22:37:57;;;;;;;1.70;1.60;;;19.50;38.70;;;;;;10450361;28;20236;-73
2021/08/02 22:43:02;;;;;;;3.47;2.00;;;19.50;39.60;;;;;;10458835;28;20229;-71
2021/08/02 22:48:08;;;;;;;2.37;2.17;;;19.40;39.40;;;;;;10452171;28;20225;-71
2021/08/02 22:53:14;;;;;;;3.17;2.40;;;19.40;39.90;;;;;;10461951;28;20240;-74
2021/08/02 22:58:19;;;;;;;2.70;2.40;;;19.40;40.40;;;;;;10461184;28;20221;-74
2021/08/02 23:03:25;;;;;;;2.17;1.97;;;19.40;39.80;;;;;;10461115;28;20229;-69
2021/08/02 23:08:32;;;;;;;2.30;2.10;;;19.30;40.10;;;;;;10455341;28;20227;-69
2021/08/02 23:13:36;;;;;;;2.37;2.17;;;19.20;40.30;;;;;;10454232;28;20228;-69
2021/08/02 23:18:41;;;;;;;2.40;2.20;;;19.10;40.00;;;;;;10457028;28;20331;-69
2021/08/02 23:23:46;;;;;;;2.40;2.30;;;19.10;40.40;;;;;;10460723;28;20220;-69
2021/08/02 23:28:52;;;;;;;2.20;2.00;;;19.00;40.70;;;;;;10454469;28;20231;-69
2021/08/02 23:33:56;;;;;;;2.20;2.00;;;19.00;41.00;;;;;;10461202;28;20586;-69
2021/08/02 23:39:03;;;;;;;2.10;1.90;;;19.00;40.80;;;;;;10455307;28;20235;-69
2021/08/02 23:44:08;;;;;;;2.10;2.00;;;19.20;41.50;;;;;;10456490;28;20224;-73
2021/08/02 23:49:12;;;;;;;1.60;1.50;;;19.20;41.10;;;;;;10462410;28;20240;-73
2021/08/02 23:54:20;;;;;;;3.43;2.40;;;19.40;40.70;;;;;;10461991;28;20552;-71
2021/08/02 23:59:23;;;;;;;2.00;1.90;;;19.40;41.20;;;;;;10455557;28;20675;-71
